Time;durP1;ratioP1;P1;durP2;ratioP2;P2;SDS_P1;SDS_P2;PMS_P1;PMS_P2;Temp;Humidity;BMP_temperature;BMP_pressure;BME280_temperature;BME280_humidity;BME280_pressure;Samples;Min_cycle;Max_cycle;Signal;HPM_P1;HPM_P2
2023/01/10 00:02:06;;;;;;;5.65;3.30;;;18.00;54.40;;;;;;4964435;28;20264;-87
2023/01/10 00:04:37;;;;;;;6.00;3.35;;;17.90;54.40;;;;;;4964018;28;20168;-86
2023/01/10 00:07:03;;;;;;;5.95;4.07;;;18.00;54.50;;;;;;4964322;28;20203;-86
2023/01/10 00:09:30;;;;;;;5.43;3.47;;;17.90;54.40;;;;;;4964184;28;20148;-86
2023/01/10 00:14:39;;;;;;;5.53;3.55;;;18.00;54.50;;;;;;4968703;28;20159;-86
2023/01/10 00:17:08;;;;;;;4.80;3.28;;;17.90;54.50;;;;;;4999528;28;20262;-86
2023/01/10 00:19:41;;;;;;;5.22;3.30;;;17.90;54.40;;;;;;4967492;28;20198;-87
2023/01/10 00:22:08;;;;;;;5.30;3.22;;;17.90;54.40;;;;;;4999428;28;20167;-86
2023/01/10 00:24:34;;;;;;;5.20;3.25;;;18.00;54.40;;;;;;4967641;28;20175;-87
2023/01/10 00:27:01;;;;;;;5.43;3.50;;;17.90;54.40;;;;;;4967708;28;20282;-86
2023/01/10 00:29:30;;;;;;;4.90;3.47;;;17.90;54.40;;;;;;4967506;28;20170;-86
2023/01/10 00:31:58;;;;;;;5.60;3.35;;;17.90;54.60;;;;;;4967507;28;20188;-86
2023/01/10 00:34:29;;;;;;;4.50;3.22;;;17.90;54.60;;;;;;4984208;28;20170;-86
2023/01/10 00:36:56;;;;;;;4.80;3.35;;;17.90;54.60;;;;;;4968864;28;20190;-87
2023/01/10 00:39:26;;;;;;;5.05;3.22;;;17.90;54.60;;;;;;4967219;28;20167;-87
2023/01/10 00:44:40;;;;;;;5.65;3.22;;;17.90;54.60;;;;;;4989527;28;20533;-86
2023/01/10 00:47:07;;;;;;;5.97;3.50;;;17.80;54.60;;;;;;4999824;28;20196;-86
2023/01/10 00:49:41;;;;;;;4.93;3.35;;;17.80;54.60;;;;;;4967093;28;20541;-87
2023/01/10 00:52:14;;;;;;;4.85;3.45;;;17.80;54.70;;;;;;4937922;29;20190;-86
2023/01/10 00:54:47;;;;;;;5.68;3.35;;;17.80;54.80;;;;;;4892292;29;20712;-86
2023/01/10 00:57:18;;;;;;;5.20;3.72;;;17.80;54.80;;;;;;4925724;29;20253;-86
2023/01/10 00:59:51;;;;;;;4.95;3.30;;;17.80;54.70;;;;;;4910607;29;20174;-86
2023/01/10 01:02:18;;;;;;;5.25;3.65;;;17.80;54.70;;;;;;4909780;29;20182;-87
2023/01/10 01:04:46;;;;;;;6.50;3.55;;;17.80;54.80;;;;;;4907334;29;20658;-87
2023/01/10 01:07:14;;;;;;;4.78;3.15;;;17.80;54.80;;;;;;4876902;29;20229;-86
2023/01/10 01:12:33;;;;;;;4.88;3.17;;;17.80;54.70;;;;;;4909782;29;20646;-86
2023/01/10 01:14:59;;;;;;;5.78;3.50;;;17.80;54.60;;;;;;4907220;29;20274;-86
2023/01/10 01:17:29;;;;;;;4.63;3.17;;;17.80;54.70;;;;;;4891610;29;20179;-86
2023/01/10 01:20:00;;;;;;;5.85;3.35;;;17.80;54.60;;;;;;4906895;29;20253;-86
2023/01/10 01:22:30;;;;;;;4.55;3.20;;;17.80;54.60;;;;;;4888660;28;20636;-87
2023/01/10 01:24:59;;;;;;;5.00;3.25;;;17.80;54.80;;;;;;4958330;28;20164;-87
2023/01/10 01:27:28;;;;;;;5.95;3.28;;;17.80;54.70;;;;;;4952364;28;20167;-86
2023/01/10 01:29:58;;;;;;;5.32;3.40;;;17.70;54.70;;;;;;4951813;28;20179;-86
2023/01/10 01:32:23;;;;;;;4.95;3.28;;;17.80;54.80;;;;;;4951875;28;20164;-87
2023/01/10 01:34:53;;;;;;;5.47;3.58;;;17.80;54.80;;;;;;4951212;28;20188;-86
2023/01/10 01:37:21;;;;;;;5.28;3.33;;;17.80;54.80;;;;;;4967210;28;20164;-86
2023/01/10 01:39:51;;;;;;;5.13;3.40;;;17.80;54.80;;;;;;4951290;28;20170;-87
2023/01/10 01:42:27;;;;;;;4.93;3.55;;;17.80;54.80;;;;;;4984019;28;20172;-87
2023/01/10 01:45:34;;;;;;;5.88;3.38;;;17.80;54.90;;;;;;4984564;28;20658;-87
2023/01/10 01:48:08;;;;;;;5.72;3.63;;;17.70;54.90;;;;;;4970169;28;20168;-87
2023/01/10 01:51:04;;;;;;;4.18;3.20;;;17.70;54.80;;;;;;4968307;28;20155;-87
2023/01/10 01:53:49;;;;;;;4.78;3.10;;;17.80;55.00;;;;;;4957398;28;20247;-87
2023/01/10 01:56:24;;;;;;;4.80;3.20;;;17.80;54.90;;;;;;4954314;28;20168;-87
2023/01/10 01:59:09;;;;;;;5.00;3.50;;;17.80;54.90;;;;;;4967812;28;20191;-87
2023/01/10 02:01:37;;;;;;;5.28;3.65;;;17.70;55.10;;;;;;4924623;29;20279;-87
2023/01/10 02:04:25;;;;;;;5.00;3.50;;;17.70;55.10;;;;;;4924423;29;20182;-87
2023/01/10 02:07:02;;;;;;;4.47;3.10;;;17.70;55.80;;;;;;4923263;29;20273;-87
2023/01/10 02:09:50;;;;;;;6.05;3.63;;;17.70;55.20;;;;;;4924309;29;20197;-87
2023/01/10 02:12:24;;;;;;;6.10;3.38;;;17.60;55.10;;;;;;4940549;29;20182;-86
2023/01/10 02:14:51;;;;;;;5.38;3.22;;;17.70;55.30;;;;;;4926015;29;20174;-87
2023/01/10 02:17:25;;;;;;;6.55;3.38;;;17.60;55.20;;;;;;4943352;29;20189;-87
2023/01/10 02:19:53;;;;;;;4.53;3.28;;;17.60;55.20;;;;;;4944092;29;20239;-87
2023/01/10 02:23:04;;;;;;;6.25;3.53;;;17.60;55.30;;;;;;4943524;29;20192;-87
2023/01/10 02:26:04;;;;;;;5.38;3.17;;;17.60;55.40;;;;;;4957970;28;20197;-87
2023/01/10 02:29:03;;;;;;;5.25;3.63;;;17.60;55.20;;;;;;4942439;29;20174;-87
2023/01/10 02:32:13;;;;;;;5.28;3.20;;;17.60;55.30;;;;;;4944521;28;20161;-87
2023/01/10 02:34:55;;;;;;;4.53;3.17;;;17.60;55.40;;;;;;4981978;28;20312;-87
2023/01/10 02:37:40;;;;;;;4.43;3.22;;;17.60;55.30;;;;;;4951784;28;20205;-87
2023/01/10 02:40:19;;;;;;;5.20;3.58;;;17.60;55.50;;;;;;4967314;28;20161;-87
2023/01/10 02:43:13;;;;;;;4.03;3.03;;;17.60;55.30;;;;;;4981628;28;20176;-87
2023/01/10 02:46:04;;;;;;;4.47;3.25;;;17.60;55.40;;;;;;4982015;28;20203;-87
2023/01/10 02:48:31;;;;;;;5.13;3.22;;;17.50;55.50;;;;;;4965119;28;20164;-87
2023/01/10 02:51:18;;;;;;;5.55;3.15;;;17.60;55.50;;;;;;4965885;28;20169;-87
2023/01/10 02:54:18;;;;;;;5.70;3.47;;;17.60;55.50;;;;;;4966125;28;20156;-86
2023/01/10 02:56:47;;;;;;;4.90;3.10;;;17.50;55.50;;;;;;4966303;28;20165;-87
2023/01/10 02:59:50;;;;;;;4.78;3.20;;;17.50;55.50;;;;;;4981705;28;20175;-87
2023/01/10 03:02:40;;;;;;;5.30;3.45;;;17.50;55.50;;;;;;4967111;28;20621;-87
2023/01/10 03:05:26;;;;;;;5.97;3.05;;;17.50;55.50;;;;;;4999853;28;20167;-86
2023/01/10 03:08:19;;;;;;;3.92;3.00;;;17.50;55.50;;;;;;4981838;28;20247;-87
2023/01/10 03:11:01;;;;;;;3.58;2.75;;;17.60;55.60;;;;;;4955261;28;20247;-87
2023/01/10 03:13:38;;;;;;;4.78;3.35;;;17.50;55.50;;;;;;4966372;28;20536;-87
2023/01/10 03:16:16;;;;;;;5.32;3.58;;;17.60;55.50;;;;;;4955837;28;20234;-87
2023/01/10 03:18:54;;;;;;;4.38;3.10;;;17.60;55.50;;;;;;4965511;28;20195;-87
2023/01/10 03:21:20;;;;;;;4.50;3.22;;;17.50;55.50;;;;;;4965782;28;20164;-87
2023/01/10 03:23:49;;;;;;;5.10;3.45;;;17.50;55.50;;;;;;4965228;28;20171;-87
2023/01/10 03:26:18;;;;;;;5.57;3.35;;;17.60;55.60;;;;;;4965528;28;20192;-87
2023/01/10 03:28:52;;;;;;;5.55;3.25;;;17.60;55.60;;;;;;4980979;28;20263;-87
2023/01/10 03:31:26;;;;;;;5.95;3.45;;;17.50;55.50;;;;;;4965753;28;20156;-87
2023/01/10 03:33:58;;;;;;;4.72;3.40;;;17.50;55.50;;;;;;4981422;28;20251;-87
2023/01/10 03:36:30;;;;;;;4.60;3.13;;;17.50;55.50;;;;;;4997986;28;20164;-87
2023/01/10 03:39:10;;;;;;;5.20;2.92;;;17.50;55.60;;;;;;4965483;28;20626;-87
2023/01/10 03:41:50;;;;;;;5.85;4.00;;;17.50;55.50;;;;;;4981424;28;20164;-87
2023/01/10 03:47:30;;;;;;;4.70;3.38;;;17.50;55.60;;;;;;4983849;28;20187;-87
2023/01/10 03:50:05;;;;;;;5.05;3.17;;;17.50;55.70;;;;;;4981730;28;20177;-87
2023/01/10 03:52:32;;;;;;;3.88;3.08;;;17.50;55.60;;;;;;4965476;28;20163;-87
2023/01/10 03:54:59;;;;;;;5.53;3.42;;;17.40;55.70;;;;;;4965334;28;20250;-86
2023/01/10 03:57:28;;;;;;;5.97;3.30;;;17.50;55.70;;;;;;4965934;28;20565;-88
2023/01/10 03:59:58;;;;;;;5.05;3.30;;;17.50;55.70;;;;;;4941522;29;20181;-87
2023/01/10 04:02:43;;;;;;;5.18;3.10;;;17.40;55.70;;;;;;4925673;29;20649;-87
2023/01/10 04:05:17;;;;;;;4.93;2.97;;;17.50;55.70;;;;;;4957542;29;20177;-87
2023/01/10 04:07:48;;;;;;;4.95;3.25;;;17.50;55.50;;;;;;4941743;29;20259;-87
2023/01/10 04:10:16;;;;;;;4.60;3.03;;;17.40;55.70;;;;;;4925326;29;20187;-87
2023/01/10 04:12:43;;;;;;;3.70;2.70;;;17.50;55.60;;;;;;4941791;29;20166;-87
2023/01/10 04:15:11;;;;;;;4.38;3.05;;;17.50;55.50;;;;;;4940952;29;20185;-87
2023/01/10 04:17:40;;;;;;;4.90;3.20;;;17.50;55.70;;;;;;4941096;29;20176;-87
2023/01/10 04:20:08;;;;;;;5.65;3.40;;;17.50;55.60;;;;;;4941026;29;20185;-87
2023/01/10 04:22:43;;;;;;;4.82;3.53;;;17.50;55.70;;;;;;4941052;29;20785;-87
2023/01/10 04:25:09;;;;;;;4.43;2.95;;;17.40;55.70;;;;;;4918560;29;20193;-87
2023/01/10 04:27:35;;;;;;;4.05;3.15;;;17.40;55.70;;;;;;4887724;29;20182;-87
2023/01/10 04:30:00;;;;;;;5.00;3.03;;;17.50;55.80;;;;;;4892672;29;20184;-87
2023/01/10 04:32:27;;;;;;;4.85;3.00;;;17.40;55.70;;;;;;4940761;29;20161;-87
2023/01/10 04:34:57;;;;;;;4.70;3.60;;;17.40;55.60;;;;;;4925273;29;20185;-86
2023/01/10 04:37:23;;;;;;;5.18;3.40;;;17.50;55.60;;;;;;4926960;29;20173;-87
2023/01/10 04:39:53;;;;;;;5.35;3.42;;;17.40;55.50;;;;;;4926202;29;20189;-86
2023/01/10 04:42:23;;;;;;;4.10;3.13;;;17.50;55.60;;;;;;4926543;29;20173;-87
2023/01/10 04:44:51;;;;;;;4.90;3.22;;;17.50;55.50;;;;;;4957796;29;20699;-86
2023/01/10 04:47:17;;;;;;;5.43;2.90;;;17.50;55.70;;;;;;4926754;29;20215;-86
2023/01/10 04:49:48;;;;;;;4.32;3.03;;;17.50;55.60;;;;;;4926671;29;20244;-86
2023/01/10 04:52:16;;;;;;;4.88;3.10;;;17.50;55.50;;;;;;4942595;29;20208;-86
2023/01/10 04:54:41;;;;;;;4.45;3.03;;;17.50;55.70;;;;;;4911560;29;20215;-86
2023/01/10 04:57:10;;;;;;;5.00;3.25;;;17.40;55.70;;;;;;4928326;28;20189;-86
2023/01/10 04:59:38;;;;;;;5.18;3.28;;;17.40;55.80;;;;;;4931094;28;20691;-86
2023/01/10 05:02:05;;;;;;;5.72;3.20;;;17.40;55.70;;;;;;4946070;28;20184;-86
2023/01/10 05:04:41;;;;;;;4.10;2.90;;;17.40;55.80;;;;;;4930616;28;20193;-86
2023/01/10 05:07:08;;;;;;;4.10;2.78;;;17.40;55.90;;;;;;4946486;28;20663;-86
2023/01/10 05:09:41;;;;;;;5.47;3.45;;;17.40;55.90;;;;;;4946820;28;20185;-86
2023/01/10 05:12:08;;;;;;;4.38;2.70;;;17.40;55.80;;;;;;4930676;28;20282;-87
2023/01/10 05:14:36;;;;;;;3.88;2.90;;;17.30;55.80;;;;;;4946404;28;20252;-86
2023/01/10 05:17:01;;;;;;;4.40;3.17;;;17.40;55.70;;;;;;4965233;28;20238;-86
2023/01/10 05:19:31;;;;;;;3.90;2.95;;;17.40;55.90;;;;;;4965002;28;20164;-86
2023/01/10 05:22:01;;;;;;;5.45;3.10;;;17.40;55.80;;;;;;4966467;28;20223;-86
2023/01/10 05:24:34;;;;;;;3.97;2.78;;;17.40;55.90;;;;;;4950080;28;20574;-87
2023/01/10 05:27:04;;;;;;;4.78;3.22;;;17.40;55.80;;;;;;4949867;28;20342;-86
2023/01/10 05:29:34;;;;;;;4.45;3.10;;;17.40;55.80;;;;;;4951417;28;20255;-87
2023/01/10 05:32:11;;;;;;;4.63;3.20;;;17.40;55.80;;;;;;4950288;28;20164;-86
2023/01/10 05:34:39;;;;;;;4.68;3.20;;;17.30;56.00;;;;;;4981823;28;20164;-85
2023/01/10 05:37:08;;;;;;;7.32;3.42;;;17.40;55.80;;;;;;4949088;28;20165;-86
2023/01/10 05:39:35;;;;;;;4.63;3.10;;;17.30;56.00;;;;;;4979977;28;20161;-86
2023/01/10 05:42:04;;;;;;;4.68;3.45;;;17.30;55.90;;;;;;4950299;28;20168;-86
2023/01/10 05:44:34;;;;;;;5.90;3.28;;;17.30;55.90;;;;;;4951908;28;20247;-86
2023/01/10 05:47:06;;;;;;;3.92;3.00;;;17.30;55.90;;;;;;4983267;28;20203;-87
2023/01/10 05:49:34;;;;;;;3.97;2.60;;;17.30;55.90;;;;;;4968206;28;20152;-87
2023/01/10 05:52:00;;;;;;;5.03;3.25;;;17.30;56.00;;;;;;4967284;28;20163;-86
2023/01/10 05:54:29;;;;;;;4.43;3.20;;;17.40;55.90;;;;;;4950727;28;20206;-86
2023/01/10 05:57:03;;;;;;;4.78;3.15;;;17.40;56.00;;;;;;4952385;28;20658;-86
2023/01/10 05:59:38;;;;;;;4.68;2.83;;;17.40;56.00;;;;;;4984102;28;20563;-87
2023/01/10 06:02:11;;;;;;;4.85;2.90;;;17.30;55.90;;;;;;4967910;28;20192;-86
2023/01/10 06:04:45;;;;;;;4.13;2.83;;;17.30;56.00;;;;;;4983616;28;20259;-86
2023/01/10 06:07:14;;;;;;;3.65;2.75;;;17.30;56.00;;;;;;4951593;28;20211;-87
2023/01/10 06:09:41;;;;;;;5.20;3.40;;;17.30;55.90;;;;;;4951362;28;20160;-86
2023/01/10 06:12:09;;;;;;;6.03;3.25;;;17.30;56.00;;;;;;4967684;28;20235;-86
2023/01/10 06:14:35;;;;;;;4.10;2.67;;;17.30;56.00;;;;;;4967560;28;20166;-86
2023/01/10 06:17:08;;;;;;;4.85;3.03;;;17.30;56.00;;;;;;4964762;28;20227;-86
2023/01/10 06:19:43;;;;;;;5.80;3.38;;;17.30;55.90;;;;;;4935528;28;20187;-86
2023/01/10 06:22:10;;;;;;;4.65;2.95;;;17.30;56.00;;;;;;4943505;29;20192;-86
2023/01/10 06:24:42;;;;;;;4.35;3.25;;;17.30;56.00;;;;;;4927567;29;20362;-86
2023/01/10 06:27:08;;;;;;;4.38;3.20;;;17.30;56.00;;;;;;4944255;29;20245;-86
2023/01/10 06:29:39;;;;;;;4.93;3.35;;;17.30;56.00;;;;;;4948106;29;20173;-86
2023/01/10 06:32:05;;;;;;;4.43;2.70;;;17.30;56.00;;;;;;4948313;29;20245;-86
2023/01/10 06:34:31;;;;;;;4.28;2.90;;;17.30;56.10;;;;;;4948145;29;20557;-87
2023/01/10 06:36:59;;;;;;;3.88;2.78;;;17.30;56.00;;;;;;4948428;29;20189;-86
2023/01/10 06:39:38;;;;;;;4.63;3.10;;;17.30;56.00;;;;;;4945009;29;20178;-86
2023/01/10 06:42:09;;;;;;;4.90;3.25;;;17.30;56.10;;;;;;4943799;29;20293;-87
2023/01/10 06:44:38;;;;;;;4.65;2.90;;;17.30;56.10;;;;;;4943174;29;20204;-86
2023/01/10 06:47:04;;;;;;;4.07;2.90;;;17.30;56.00;;;;;;4959361;29;20220;-86
2023/01/10 06:49:29;;;;;;;4.65;3.13;;;17.30;56.00;;;;;;4960657;29;20158;-86
2023/01/10 06:52:02;;;;;;;3.95;2.83;;;17.30;56.10;;;;;;4958040;28;20232;-86
2023/01/10 06:54:34;;;;;;;4.05;3.00;;;17.30;56.00;;;;;;4966160;28;20598;-86
2023/01/10 06:57:03;;;;;;;4.32;2.90;;;17.30;56.00;;;;;;4950877;28;20194;-86
2023/01/10 06:59:29;;;;;;;5.90;3.28;;;17.30;56.00;;;;;;4929001;29;20296;-87
2023/01/10 07:01:56;;;;;;;4.88;3.00;;;17.40;56.00;;;;;;4944521;29;20615;-86
2023/01/10 07:04:25;;;;;;;4.68;3.22;;;17.30;56.00;;;;;;4945318;29;20196;-87
2023/01/10 07:06:52;;;;;;;4.53;3.15;;;17.20;55.90;;;;;;4945463;29;20712;-86
2023/01/10 07:09:21;;;;;;;4.05;3.00;;;17.30;56.10;;;;;;4944875;29;20182;-87
2023/01/10 07:11:47;;;;;;;3.75;2.75;;;17.30;56.00;;;;;;4945726;29;20169;-87
2023/01/10 07:14:23;;;;;;;5.03;2.90;;;17.30;56.30;;;;;;4943667;29;20508;-86
2023/01/10 07:16:53;;;;;;;3.45;2.60;;;17.30;56.30;;;;;;4955534;29;20224;-87
2023/01/10 07:19:23;;;;;;;4.38;3.00;;;17.30;56.00;;;;;;4928465;29;20185;-86
2023/01/10 07:21:49;;;;;;;4.40;2.97;;;17.30;56.00;;;;;;4912314;29;20196;-86
2023/01/10 07:24:24;;;;;;;4.40;2.95;;;17.30;55.90;;;;;;4912322;29;20189;-87
2023/01/10 07:26:55;;;;;;;4.03;2.78;;;17.20;56.00;;;;;;4928631;29;20284;-86
2023/01/10 07:29:24;;;;;;;4.07;2.70;;;17.30;55.90;;;;;;4928518;29;20160;-87
2023/01/10 07:31:56;;;;;;;3.30;2.60;;;17.30;55.80;;;;;;4907807;29;20192;-86
2023/01/10 07:34:35;;;;;;;4.30;2.80;;;17.30;55.50;;;;;;4939561;29;20186;-86
2023/01/10 07:37:09;;;;;;;3.75;2.70;;;17.40;55.10;;;;;;4939562;29;20197;-86
2023/01/10 07:39:49;;;;;;;3.65;2.75;;;17.50;55.20;;;;;;4923383;29;20192;-87
2023/01/10 07:42:15;;;;;;;3.40;2.60;;;17.50;54.90;;;;;;4881912;29;20196;-87
2023/01/10 07:44:41;;;;;;;4.43;2.42;;;17.60;54.80;;;;;;4827206;29;20236;-86
2023/01/10 07:47:09;;;;;;;3.85;2.80;;;17.60;54.70;;;;;;4812542;29;20243;-86
2023/01/10 07:49:44;;;;;;;3.47;2.50;;;17.60;54.70;;;;;;4809815;29;20639;-87
2023/01/10 07:52:11;;;;;;;4.38;2.78;;;17.60;54.70;;;;;;4811342;29;20190;-86
2023/01/10 07:54:52;;;;;;;3.58;2.60;;;17.70;54.70;;;;;;4793097;30;20191;-86
2023/01/10 07:57:19;;;;;;;2.80;2.30;;;17.70;54.70;;;;;;4795947;29;20190;-86
2023/01/10 07:59:44;;;;;;;2.70;2.10;;;17.70;54.40;;;;;;4793609;29;20201;-86
2023/01/10 08:02:17;;;;;;;4.05;2.70;;;17.70;54.70;;;;;;4779402;29;20647;-87
2023/01/10 08:04:53;;;;;;;2.85;2.13;;;17.70;54.70;;;;;;4792839;29;20651;-86
2023/01/10 08:07:31;;;;;;;3.28;2.50;;;17.70;54.60;;;;;;4793628;29;20228;-86
2023/01/10 08:10:05;;;;;;;3.28;2.35;;;17.70;54.40;;;;;;4781465;29;20650;-86
2023/01/10 08:12:37;;;;;;;3.10;2.45;;;17.80;54.30;;;;;;4802467;29;20192;-86
2023/01/10 08:15:12;;;;;;;3.28;2.53;;;17.80;54.30;;;;;;4843416;29;20725;-86
2023/01/10 08:17:40;;;;;;;2.88;2.28;;;17.80;54.30;;;;;;4863428;29;20207;-86
2023/01/10 08:20:10;;;;;;;3.53;2.78;;;17.80;54.30;;;;;;4884596;29;20196;-86
2023/01/10 08:22:37;;;;;;;3.15;2.45;;;17.80;54.40;;;;;;4900707;29;20267;-86
2023/01/10 08:25:07;;;;;;;2.78;2.25;;;17.80;54.30;;;;;;4886828;29;20179;-85
2023/01/10 08:27:36;;;;;;;3.72;2.60;;;17.80;54.20;;;;;;4906552;29;20217;-85
2023/01/10 08:30:08;;;;;;;3.33;2.38;;;17.90;54.40;;;;;;4892898;29;20182;-86
2023/01/10 08:32:39;;;;;;;3.75;2.63;;;17.90;54.30;;;;;;4894079;29;20672;-86
2023/01/10 08:35:10;;;;;;;3.10;2.38;;;17.80;54.40;;;;;;4911416;29;20579;-85
2023/01/10 08:37:57;;;;;;;2.97;2.10;;;17.80;54.30;;;;;;4932141;28;20229;-86
2023/01/10 08:40:30;;;;;;;3.72;2.80;;;17.90;54.50;;;;;;4960887;28;20224;-86
2023/01/10 08:42:58;;;;;;;3.80;2.20;;;17.90;54.10;;;;;;4963112;28;20180;-86
2023/01/10 08:45:54;;;;;;;3.30;2.40;;;17.90;54.10;;;;;;4959492;28;20180;-86
2023/01/10 08:48:22;;;;;;;3.63;2.40;;;18.00;54.30;;;;;;4972364;28;20215;-87
2023/01/10 08:50:55;;;;;;;2.95;2.30;;;17.90;54.20;;;;;;4985117;28;20183;-86
2023/01/10 08:53:30;;;;;;;3.55;2.13;;;17.90;54.10;;;;;;5017627;28;20167;-86
2023/01/10 08:55:55;;;;;;;3.17;2.47;;;17.90;54.00;;;;;;4986640;28;20187;-86
2023/01/10 08:58:24;;;;;;;4.00;2.13;;;17.90;54.10;;;;;;4986099;28;20206;-86
2023/01/10 09:00:56;;;;;;;3.40;1.95;;;17.90;54.30;;;;;;5005990;28;20187;-86
2023/01/10 09:03:27;;;;;;;3.05;1.90;;;18.00;54.10;;;;;;4986327;28;20175;-87
2023/01/10 09:06:01;;;;;;;5.97;2.17;;;18.00;54.20;;;;;;4988747;28;20215;-86
2023/01/10 09:08:29;;;;;;;2.90;1.90;;;18.00;54.20;;;;;;4988094;28;20168;-87
2023/01/10 09:10:59;;;;;;;4.20;2.50;;;18.00;54.40;;;;;;4973612;28;20187;-87
2023/01/10 09:13:25;;;;;;;2.90;1.98;;;18.00;54.50;;;;;;4974939;28;20164;-87
2023/01/10 09:15:53;;;;;;;3.30;2.05;;;17.90;54.40;;;;;;4974283;28;20278;-87
2023/01/10 09:18:25;;;;;;;3.67;2.20;;;18.00;54.40;;;;;;4974049;28;20171;-87
2023/01/10 09:20:52;;;;;;;5.72;2.50;;;17.90;54.30;;;;;;4990709;28;20234;-87
2023/01/10 09:23:29;;;;;;;4.95;2.58;;;18.00;54.40;;;;;;4973791;28;20211;-86
2023/01/10 09:26:01;;;;;;;2.63;2.05;;;18.10;54.30;;;;;;4962795;29;20252;-87
2023/01/10 09:28:28;;;;;;;3.05;1.80;;;18.00;54.20;;;;;;4890932;29;20686;-86
2023/01/10 09:31:03;;;;;;;3.08;2.13;;;18.10;54.10;;;;;;4890763;29;20183;-87
2023/01/10 09:33:31;;;;;;;2.22;1.95;;;18.00;54.10;;;;;;4876676;29;20179;-86
2023/01/10 09:35:59;;;;;;;2.30;1.80;;;18.00;54.20;;;;;;4871691;29;20654;-86
2023/01/10 09:38:35;;;;;;;2.85;2.30;;;18.10;54.20;;;;;;4888489;29;20183;-86
2023/01/10 09:41:38;;;;;;;3.70;2.08;;;18.10;54.20;;;;;;4892313;29;20194;-87
2023/01/10 09:44:45;;;;;;;2.70;2.08;;;18.10;54.30;;;;;;4891523;29;20187;-87
2023/01/10 09:47:52;;;;;;;3.38;1.80;;;18.00;54.30;;;;;;4892529;29;20214;-87
2023/01/10 09:54:04;;;;;;;3.42;1.90;;;18.00;54.40;;;;;;4888390;29;20186;-86
2023/01/10 09:56:37;;;;;;;3.30;2.20;;;18.00;54.60;;;;;;4861552;29;20192;-86
2023/01/10 09:59:20;;;;;;;3.13;2.22;;;18.00;54.60;;;;;;4879347;29;20200;-86
2023/01/10 10:01:54;;;;;;;1.98;1.67;;;18.10;54.90;;;;;;4929195;29;20202;-85
2023/01/10 10:04:33;;;;;;;3.80;1.85;;;18.10;54.50;;;;;;4919932;29;20191;-85
2023/01/10 10:07:14;;;;;;;2.00;1.73;;;18.10;54.30;;;;;;4934255;29;20205;-86
2023/01/10 10:09:51;;;;;;;2.15;1.88;;;18.10;54.30;;;;;;4928285;29;20189;-85
2023/01/10 10:12:51;;;;;;;2.40;1.75;;;18.10;54.20;;;;;;4857401;29;20272;-84
2023/01/10 10:15:47;;;;;;;4.38;1.90;;;18.10;54.20;;;;;;4825006;29;20204;-86
2023/01/10 10:18:48;;;;;;;2.78;2.10;;;18.10;54.20;;;;;;4833811;29;20201;-84
2023/01/10 10:21:22;;;;;;;3.38;1.73;;;18.20;54.20;;;;;;4822374;29;20184;-87
2023/01/10 10:24:13;;;;;;;4.80;2.08;;;18.20;54.20;;;;;;4835909;29;20188;-85
2023/01/10 10:26:52;;;;;;;2.40;1.90;;;18.20;54.30;;;;;;4825128;29;20356;-85
2023/01/10 10:29:58;;;;;;;5.53;2.00;;;18.20;54.30;;;;;;4868818;29;20210;-86
2023/01/10 10:32:55;;;;;;;3.17;1.67;;;18.20;54.40;;;;;;4893652;29;20187;-86
2023/01/10 10:35:35;;;;;;;3.10;1.60;;;18.20;54.30;;;;;;4878221;29;20188;-85
2023/01/10 10:38:29;;;;;;;3.80;1.95;;;18.20;54.20;;;;;;4870557;29;20196;-86
2023/01/10 10:40:58;;;;;;;2.38;1.60;;;18.20;54.50;;;;;;4799594;29;20193;-86
2023/01/10 10:43:31;;;;;;;2.50;1.70;;;18.20;54.20;;;;;;4813435;29;20194;-86
2023/01/10 10:46:04;;;;;;;4.40;1.80;;;18.20;54.60;;;;;;4807178;29;20230;-86
2023/01/10 10:48:31;;;;;;;4.88;2.05;;;18.20;54.50;;;;;;4812510;29;20199;-86
2023/01/10 10:51:19;;;;;;;5.28;2.10;;;18.20;54.50;;;;;;4817506;29;20202;-86
2023/01/10 10:53:50;;;;;;;4.63;1.73;;;18.20;54.50;;;;;;4815175;29;20261;-87
2023/01/10 10:56:37;;;;;;;3.90;1.60;;;18.20;54.60;;;;;;4796019;29;20587;-85
2023/01/10 10:59:18;;;;;;;2.95;1.77;;;18.20;54.60;;;;;;4799185;29;20194;-86
2023/01/10 11:01:47;;;;;;;2.20;1.60;;;18.20;54.20;;;;;;4778279;30;20719;-85
2023/01/10 11:04:21;;;;;;;3.53;1.70;;;18.10;54.50;;;;;;4727181;30;20205;-85
2023/01/10 11:06:54;;;;;;;4.63;1.83;;;18.20;54.40;;;;;;4746193;30;20216;-86
2023/01/10 11:09:46;;;;;;;2.47;1.92;;;18.20;54.70;;;;;;4764961;30;20271;-88
2023/01/10 11:12:17;;;;;;;2.75;1.48;;;18.20;54.80;;;;;;4726841;30;20276;-86
2023/01/10 11:14:55;;;;;;;3.40;1.70;;;18.20;54.10;;;;;;4739067;30;20197;-86
2023/01/10 11:17:40;;;;;;;4.72;2.17;;;18.10;54.60;;;;;;4756419;30;20304;-87
2023/01/10 11:20:22;;;;;;;2.92;1.55;;;18.20;54.20;;;;;;4757713;30;20196;-86
2023/01/10 11:23:22;;;;;;;4.18;2.05;;;18.20;54.20;;;;;;4774640;30;20199;-86
2023/01/10 11:26:06;;;;;;;1.75;1.42;;;18.20;54.40;;;;;;4798285;29;20610;-86
2023/01/10 11:29:13;;;;;;;2.28;1.50;;;18.20;54.30;;;;;;4854467;29;20280;-86
2023/01/10 11:31:46;;;;;;;2.47;1.60;;;18.20;54.40;;;;;;4874549;29;20192;-87
2023/01/10 11:34:23;;;;;;;1.77;1.45;;;18.20;54.50;;;;;;4874183;29;20198;-87
2023/01/10 11:37:05;;;;;;;2.67;1.60;;;18.20;54.30;;;;;;4946671;28;20256;-87
2023/01/10 11:39:40;;;;;;;3.45;1.40;;;18.20;54.20;;;;;;4889366;29;20192;-87
2023/01/10 11:42:29;;;;;;;3.15;1.70;;;18.30;53.60;;;;;;4877655;29;20187;-86
2023/01/10 11:45:19;;;;;;;2.80;1.85;;;18.30;53.90;;;;;;4860498;29;20192;-86
2023/01/10 11:48:00;;;;;;;4.72;1.40;;;18.30;54.20;;;;;;4858891;29;20204;-87
2023/01/10 11:50:55;;;;;;;2.15;1.60;;;18.30;54.10;;;;;;4849031;29;20188;-86
2023/01/10 11:54:24;;;;;;;2.92;1.50;;;18.30;53.90;;;;;;4856756;29;20190;-87
2023/01/10 11:57:11;;;;;;;1.63;1.38;;;18.30;53.90;;;;;;4821847;29;20190;-87
2023/01/10 12:00:06;;;;;;;2.80;1.50;;;18.30;54.30;;;;;;4788359;30;20278;-86
2023/01/10 12:02:44;;;;;;;1.70;1.33;;;18.20;54.50;;;;;;4766815;30;20215;-86
2023/01/10 12:05:19;;;;;;;1.85;1.45;;;18.20;54.10;;;;;;4769289;30;20192;-87
2023/01/10 12:08:09;;;;;;;3.58;1.50;;;18.30;54.30;;;;;;4783249;30;20198;-86
2023/01/10 12:11:02;;;;;;;2.00;1.40;;;18.30;54.20;;;;;;4779625;30;20652;-86
2023/01/10 12:13:49;;;;;;;2.33;1.70;;;18.30;54.10;;;;;;4769123;30;20207;-86
2023/01/10 12:16:21;;;;;;;2.05;1.50;;;18.40;53.80;;;;;;4777426;30;20296;-87
2023/01/10 12:18:52;;;;;;;1.30;1.20;;;18.30;53.90;;;;;;4773079;29;20283;-87
2023/01/10 12:21:25;;;;;;;1.83;1.40;;;18.30;53.90;;;;;;4756599;30;20191;-86
2023/01/10 12:23:57;;;;;;;2.75;1.70;;;18.40;53.30;;;;;;4788339;29;20190;-86
2023/01/10 12:26:38;;;;;;;1.80;1.42;;;18.50;53.50;;;;;;4816324;29;20254;-86
2023/01/10 12:29:12;;;;;;;1.60;1.33;;;18.50;53.20;;;;;;4894591;29;20183;-86
2023/01/10 12:31:47;;;;;;;1.55;1.42;;;18.60;53.30;;;;;;4937325;29;20188;-87
2023/01/10 12:34:19;;;;;;;1.80;1.30;;;18.50;53.40;;;;;;4952338;29;20258;-87
2023/01/10 12:37:17;;;;;;;1.40;1.30;;;18.50;53.10;;;;;;4880698;29;20269;-87
2023/01/10 12:39:48;;;;;;;1.67;1.50;;;18.60;53.00;;;;;;4946981;29;20615;-85
2023/01/10 12:45:20;;;;;;;1.45;1.35;;;18.60;52.70;;;;;;4943681;29;20704;-87
2023/01/10 12:48:14;;;;;;;2.03;1.30;;;18.70;53.30;;;;;;4932142;28;20197;-87
2023/01/10 12:50:45;;;;;;;2.85;1.40;;;18.80;52.60;;;;;;4950829;28;20176;-87
2023/01/10 12:53:37;;;;;;;1.33;1.23;;;18.80;53.20;;;;;;4932327;29;20189;-87
2023/01/10 12:56:08;;;;;;;2.13;1.58;;;18.80;52.30;;;;;;4951362;29;20225;-87
2023/01/10 12:58:45;;;;;;;2.88;1.42;;;18.70;52.70;;;;;;4932706;29;20240;-86
2023/01/10 13:01:26;;;;;;;1.88;1.50;;;18.60;53.20;;;;;;4925325;29;20195;-87
2023/01/10 13:03:56;;;;;;;1.80;1.40;;;18.60;53.10;;;;;;4880405;29;20279;-87
2023/01/10 13:06:36;;;;;;;1.70;1.50;;;18.60;53.10;;;;;;4912894;29;20218;-86
2023/01/10 13:09:06;;;;;;;2.20;1.50;;;18.50;53.40;;;;;;4912043;29;20195;-85
2023/01/10 13:11:47;;;;;;;1.67;1.45;;;18.50;53.40;;;;;;4907814;29;20163;-86
2023/01/10 13:14:26;;;;;;;1.42;1.33;;;18.60;53.20;;;;;;4925987;29;20246;-86
2023/01/10 13:16:54;;;;;;;1.38;1.15;;;18.70;52.80;;;;;;4897421;29;20616;-86
2023/01/10 13:19:28;;;;;;;1.85;1.45;;;18.70;53.10;;;;;;4918456;29;20186;-87
2023/01/10 13:22:17;;;;;;;1.55;1.30;;;18.60;52.90;;;;;;4929328;29;20166;-86
2023/01/10 13:25:03;;;;;;;1.45;1.23;;;18.70;52.70;;;;;;4962116;28;20188;-86
2023/01/10 13:27:32;;;;;;;2.72;1.40;;;18.70;52.80;;;;;;4926902;29;20221;-86
2023/01/10 13:29:59;;;;;;;1.42;1.30;;;18.60;53.00;;;;;;4928359;29;20189;-86
2023/01/10 13:32:31;;;;;;;3.70;1.38;;;18.60;53.70;;;;;;4930088;29;20201;-87
2023/01/10 13:35:16;;;;;;;1.55;1.45;;;18.60;53.00;;;;;;4897008;29;20178;-87
2023/01/10 13:37:46;;;;;;;1.60;1.30;;;18.60;53.10;;;;;;4924088;29;20221;-86
2023/01/10 13:40:31;;;;;;;2.40;1.20;;;18.60;53.10;;;;;;4923747;29;20189;-86
2023/01/10 13:43:37;;;;;;;2.42;1.48;;;18.60;53.10;;;;;;4906114;29;20261;-86
2023/01/10 13:46:43;;;;;;;1.38;1.27;;;18.60;53.50;;;;;;4938520;29;20264;-87
2023/01/10 13:49:30;;;;;;;4.22;1.35;;;18.50;53.50;;;;;;4925474;29;20182;-85